Time;durP1;ratioP1;P1;durP2;ratioP2;P2;SDS_P1;SDS_P2;PMS_P1;PMS_P2;Temp;Humidity;BMP_temperature;BMP_pressure;BME280_temperature;BME280_humidity;BME280_pressure;Samples;Min_cycle;Max_cycle;Signal;HPM_P1;HPM_P2
2022/12/16 00:01:58;;;;;;;6.55;1.88;;;;;;;;;;4990425;28;20058;-63
2022/12/16 00:04:28;;;;;;;11.85;3.40;;;;;;;;;;4973958;28;20054;-63
2022/12/16 00:06:58;;;;;;;6.15;1.60;;;;;;;;;;4990227;28;20434;-63
2022/12/16 00:09:27;;;;;;;6.32;2.40;;;;;;;;;;5033210;28;20060;-63
2022/12/16 00:11:57;;;;;;;8.40;2.35;;;;;;;;;;5049695;28;20052;-63
2022/12/16 00:14:28;;;;;;;8.85;2.40;;;;;;;;;;5049213;28;20065;-63
2022/12/16 00:16:57;;;;;;;7.93;1.83;;;;;;;;;;5049237;28;20409;-63
2022/12/16 00:19:27;;;;;;;4.82;2.42;;;;;;;;;;5035560;28;20049;-63
2022/12/16 00:21:57;;;;;;;8.90;1.83;;;;;;;;;;5069198;28;20448;-63
2022/12/16 00:24:30;;;;;;;8.50;2.28;;;;;;;;;;5018946;28;20052;-64
2022/12/16 00:27:02;;;;;;;9.32;2.38;;;;;;;;;;5059681;28;20204;-63
2022/12/16 00:29:32;;;;;;;8.27;2.42;;;;;;;;;;5049136;28;20045;-63
2022/12/16 00:32:01;;;;;;;8.32;2.42;;;;;;;;;;5048951;28;20064;-63
2022/12/16 00:34:32;;;;;;;7.82;2.33;;;;;;;;;;4999758;28;20068;-63
2022/12/16 00:37:02;;;;;;;9.90;2.40;;;;;;;;;;5034751;28;20056;-63
2022/12/16 00:39:32;;;;;;;9.25;2.83;;;;;;;;;;5068726;28;20053;-63
2022/12/16 00:42:01;;;;;;;6.60;2.75;;;;;;;;;;5068764;28;20060;-63
2022/12/16 00:44:31;;;;;;;12.05;2.50;;;;;;;;;;5035305;28;20051;-63
2022/12/16 00:47:00;;;;;;;6.85;2.20;;;;;;;;;;5068924;28;20428;-63
2022/12/16 00:49:30;;;;;;;5.20;2.97;;;;;;;;;;5068530;28;20189;-64
2022/12/16 00:52:00;;;;;;;9.68;2.40;;;;;;;;;;5051712;28;20483;-63
2022/12/16 00:54:30;;;;;;;9.55;2.45;;;;;;;;;;5068473;28;20150;-63
2022/12/16 00:57:00;;;;;;;12.68;2.78;;;;;;;;;;4977507;28;20492;-63
2022/12/16 00:59:29;;;;;;;7.53;2.33;;;;;;;;;;5048609;28;20053;-63
2022/12/16 01:02:00;;;;;;;8.90;2.05;;;;;;;;;;4999588;28;20520;-63
2022/12/16 01:04:30;;;;;;;9.18;2.20;;;;;;;;;;4999908;28;20492;-63
2022/12/16 01:07:00;;;;;;;7.60;1.95;;;;;;;;;;5044387;28;20056;-63
2022/12/16 01:09:29;;;;;;;10.07;2.33;;;;;;;;;;5012299;28;20060;-62
2022/12/16 01:11:59;;;;;;;11.77;2.55;;;;;;;;;;4992243;28;20061;-63
2022/12/16 01:14:29;;;;;;;9.18;2.30;;;;;;;;;;5000566;28;20054;-63
2022/12/16 01:16:59;;;;;;;6.20;2.17;;;;;;;;;;4988894;28;20066;-63
2022/12/16 01:19:29;;;;;;;8.13;2.47;;;;;;;;;;5000416;28;20043;-63
2022/12/16 01:22:00;;;;;;;7.53;2.40;;;;;;;;;;4969491;28;20062;-63
2022/12/16 01:24:30;;;;;;;12.13;2.83;;;;;;;;;;4937346;28;20545;-63
2022/12/16 01:27:00;;;;;;;7.03;2.65;;;;;;;;;;4985209;28;20529;-63
2022/12/16 01:29:30;;;;;;;10.57;3.13;;;;;;;;;;4969501;28;20844;-63
2022/12/16 01:31:59;;;;;;;7.22;2.10;;;;;;;;;;4969582;28;20059;-63
2022/12/16 01:34:29;;;;;;;9.00;2.50;;;;;;;;;;4969433;28;20055;-63
2022/12/16 01:36:59;;;;;;;10.40;2.65;;;;;;;;;;4968958;28;20067;-63
2022/12/16 01:39:29;;;;;;;7.35;2.80;;;;;;;;;;4985521;28;20055;-62
2022/12/16 01:41:58;;;;;;;10.13;2.45;;;;;;;;;;4969508;28;20051;-63
2022/12/16 01:44:28;;;;;;;9.20;2.38;;;;;;;;;;4977746;28;20769;-62
2022/12/16 01:47:02;;;;;;;7.72;2.03;;;;;;;;;;4956292;28;20450;-62
2022/12/16 01:50:03;;;;;;;8.80;2.35;;;;;;;;;;4958254;28;20053;-62
2022/12/16 01:52:41;;;;;;;6.43;2.05;;;;;;;;;;4988627;28;20380;-62
2022/12/16 01:55:29;;;;;;;7.50;2.55;;;;;;;;;;4969102;28;20055;-62
2022/12/16 01:58:22;;;;;;;6.82;2.65;;;;;;;;;;4953062;28;20058;-63
2022/12/16 02:00:53;;;;;;;9.38;2.60;;;;;;;;;;4988438;28;20066;-62
2022/12/16 02:03:23;;;;;;;6.80;2.50;;;;;;;;;;4974668;28;20073;-63
2022/12/16 02:05:53;;;;;;;7.93;1.90;;;;;;;;;;4992532;28;20410;-62
2022/12/16 02:08:23;;;;;;;5.60;2.38;;;;;;;;;;4976111;28;20046;-62
2022/12/16 02:11:07;;;;;;;7.25;2.30;;;;;;;;;;4992117;28;20054;-63
2022/12/16 02:13:49;;;;;;;9.63;2.55;;;;;;;;;;4944214;28;20062;-62
2022/12/16 02:16:33;;;;;;;16.52;3.22;;;;;;;;;;4959754;28;20550;-62
2022/12/16 02:19:19;;;;;;;8.43;3.35;;;;;;;;;;4959994;28;20050;-62
2022/12/16 02:22:05;;;;;;;8.25;3.08;;;;;;;;;;4959769;28;20561;-62
2022/12/16 02:24:56;;;;;;;10.80;2.00;;;;;;;;;;4992290;28;20046;-62
2022/12/16 02:27:51;;;;;;;7.20;2.60;;;;;;;;;;4959693;28;20055;-63
2022/12/16 02:30:51;;;;;;;4.90;2.28;;;;;;;;;;5007918;28;20402;-62
2022/12/16 02:33:34;;;;;;;7.70;2.53;;;;;;;;;;4948619;28;20053;-63
2022/12/16 02:36:21;;;;;;;7.95;2.10;;;;;;;;;;4943108;28;20391;-62
2022/12/16 02:38:54;;;;;;;8.45;2.40;;;;;;;;;;4991732;28;20059;-62
2022/12/16 02:41:45;;;;;;;9.50;3.08;;;;;;;;;;4975857;28;20202;-63
2022/12/16 02:44:17;;;;;;;6.00;2.38;;;;;;;;;;4991878;28;20537;-63
2022/12/16 02:46:55;;;;;;;13.00;2.97;;;;;;;;;;4959768;28;20070;-62
2022/12/16 02:49:25;;;;;;;6.82;2.20;;;;;;;;;;4975431;28;20054;-62
2022/12/16 02:51:57;;;;;;;3.25;1.77;;;;;;;;;;5011617;28;20387;-62
2022/12/16 02:54:28;;;;;;;8.88;2.63;;;;;;;;;;4939983;28;20499;-62
2022/12/16 02:57:29;;;;;;;6.40;2.90;;;;;;;;;;4972243;28;20059;-62
2022/12/16 03:00:19;;;;;;;4.50;2.72;;;;;;;;;;4956275;28;20065;-63
2022/12/16 03:03:14;;;;;;;6.22;3.80;;;;;;;;;;4972051;28;20066;-62
2022/12/16 03:05:47;;;;;;;6.60;2.63;;;;;;;;;;4955495;28;20074;-62
2022/12/16 03:08:32;;;;;;;12.55;2.85;;;;;;;;;;4955642;28;20061;-62
2022/12/16 03:11:07;;;;;;;6.38;2.40;;;;;;;;;;4994131;28;20061;-62
2022/12/16 03:13:45;;;;;;;10.73;2.90;;;;;;;;;;5010920;28;20058;-62
2022/12/16 03:16:19;;;;;;;12.98;2.85;;;;;;;;;;5010502;28;20049;-62
2022/12/16 03:18:54;;;;;;;6.07;3.17;;;;;;;;;;4977486;28;20050;-62
2022/12/16 03:21:29;;;;;;;10.75;2.72;;;;;;;;;;5010529;28;20053;-62
2022/12/16 03:24:06;;;;;;;7.05;2.85;;;;;;;;;;4961980;28;20127;-63
2022/12/16 03:26:48;;;;;;;4.93;2.50;;;;;;;;;;5010880;28;20057;-62
2022/12/16 03:29:55;;;;;;;9.25;2.80;;;;;;;;;;4977722;28;20561;-62
2022/12/16 03:32:58;;;;;;;6.78;2.35;;;;;;;;;;5042635;28;20045;-62
2022/12/16 03:35:37;;;;;;;9.60;2.38;;;;;;;;;;5013161;28;20064;-62
2022/12/16 03:38:10;;;;;;;11.25;3.08;;;;;;;;;;5050090;28;20053;-62
2022/12/16 03:40:42;;;;;;;9.85;2.63;;;;;;;;;;5049794;28;20068;-62
2022/12/16 03:43:14;;;;;;;11.20;2.05;;;;;;;;;;5049725;28;20480;-62
2022/12/16 03:45:45;;;;;;;6.38;3.05;;;;;;;;;;5050044;28;20067;-62
2022/12/16 03:48:17;;;;;;;8.75;2.50;;;;;;;;;;5033477;28;20072;-62
2022/12/16 03:50:47;;;;;;;10.00;3.00;;;;;;;;;;5032419;28;20064;-63
2022/12/16 03:53:17;;;;;;;10.82;2.75;;;;;;;;;;5049984;28;20052;-63
2022/12/16 03:55:47;;;;;;;7.30;2.60;;;;;;;;;;5049976;28;20049;-63
2022/12/16 03:58:17;;;;;;;8.52;2.53;;;;;;;;;;5049486;28;20065;-63
2022/12/16 04:00:47;;;;;;;6.65;2.58;;;;;;;;;;5009897;28;20046;-63
2022/12/16 04:03:17;;;;;;;5.18;2.53;;;;;;;;;;5025759;28;20072;-63
2022/12/16 04:05:47;;;;;;;7.72;2.40;;;;;;;;;;4977024;28;20065;-63
2022/12/16 04:08:16;;;;;;;6.32;2.65;;;;;;;;;;5009737;28;20477;-63
2022/12/16 04:25:34;;;;;;;13.50;2.83;;;;;;;;;;4989502;28;20058;-62
2022/12/16 04:28:04;;;;;;;6.72;2.78;;;;;;;;;;4957198;28;20095;-62
2022/12/16 04:30:34;;;;;;;6.82;2.60;;;;;;;;;;4989957;28;20058;-62
